Alverca, Portugal

11:58 AM WEST on September 18, 2014 (GMT +0100)
Lisboa - Forte da casa | Change Station
CLOSE
Current Station
Personal Weather Station
Location: Forte Da Casa, LISBOA
Elevation: 135 ft
Nearby Weather Stations

Elev 135 ft 38.87 °N, 9.06 °W | Updated 3 minutes ago

Partly Cloudy
Partly Cloudy
74.7 °F
Feels Like 77 °F
N
2.0
Wind Variable Wind from West
Gusts 2.0 mph

Today
High -- | Low -- °F
--% Chance of Precip.
Yesterday
High -- | Low -- °F
Precip. -- in
7:20 AM 7:39 PM
Waning Crescent, 28% visible
Pressure 29.74 in
Visibility 6.2 miles
Clouds Few 2200 ft
Mostly Cloudy 2600 ft
Few 2800 ft
Heat Index 77 °F
Dew Point 61 °F
Humidity 61%
Rainfall 0.00 in
Snow Depth Not available.
UV 6 out of 12
Pollen Not available.
Air Quality Not available.
Flu Activity Not available.
METAR LPPT 181030Z 22020KT 9999 FEW022 BKN026 FEW028CB 22/16 Q1007

More Conditions Fewer Conditions

Pressure 29.74 in
Visibility 6.2 miles
Clouds Few 2200 ft
Mostly Cloudy 2600 ft
Few 2800 ft
Heat Index 77 °F
Dew Point 61 °F
Humidity 61%
Rainfall 0.00 in
Snow Depth Not available.
UV 6 out of 12
Pollen Not available.
Air Quality Not available.
Flu Activity Not available.
METAR LPPT 181030Z 22020KT 9999 FEW022 BKN026 FEW028CB 22/16 Q1007

More Conditions Fewer Conditions

10-Day Weather Forecast

Almanac

Astronomy

Sep. 18, 2014 Rise Set
Actual Time 7:20 AM WEST 7:39 PM WEST
Civil Twilight 6:53 AM WEST 8:06 PM WEST
Nautical Twilight 6:22 AM WEST 8:37 PM WEST
Astronomical Twilight 5:50 AM WEST 9:09 PM WEST
Moon 2:02 AM WEST 4:20 PM WEST
Length of Visible Light 13h 13m
Length of Day
12h 19m
Tomorrow will be 2m 30s shorter.
Waning Crescent, 28% of the Moon is Illuminated
Today
Waning Crescent
Sep 24
New
Oct 1
First Quarter
Oct 8
Full
Oct 15
Last Quarter

Yesterday's Extremes

Country Highs Country Lows

Community

WunderPhotos

Upload Photos

1,754,314 photos uploaded!

Nearby

Snow Depth

Not available.

Earthquake Activity

City Distance Mag. Time & Date
No recent earthquake activity has been reported nearby.
Minimum magnitude displayed is 2.5.

Coastal Water Temperatures

Place Temperature
No Stations Reporting

Nearby Weather Stations